Time;durP1;ratioP1;P1;durP2;ratioP2;P2;SDS_P1;SDS_P2;PMS_P1;PMS_P2;Temp;Humidity;BMP_temperature;BMP_pressure;BME280_temperature;BME280_humidity;BME280_pressure;Samples;Min_cycle;Max_cycle;Signal;HPM_P1;HPM_P2
2022/06/29 00:02:10;;;;;;;9.07;5.55;;;;;;;;;;5028578;28;20114;-63
2022/06/29 00:04:36;;;;;;;5.93;5.15;;;;;;;;;;5028854;28;20466;-64
2022/06/29 00:07:01;;;;;;;6.30;5.70;;;;;;;;;;5028191;28;20039;-65
2022/06/29 00:09:27;;;;;;;6.57;5.38;;;;;;;;;;5028131;28;20039;-64
2022/06/29 00:11:52;;;;;;;5.63;5.22;;;;;;;;;;5028159;28;20056;-65
2022/06/29 00:14:17;;;;;;;5.35;5.05;;;;;;;;;;5028701;28;20031;-64
2022/06/29 00:16:43;;;;;;;5.82;5.32;;;;;;;;;;5028493;28;20036;-64
2022/06/29 00:19:08;;;;;;;5.82;5.32;;;;;;;;;;5028396;28;20128;-65
2022/06/29 00:21:34;;;;;;;5.93;5.35;;;;;;;;;;5043246;28;20438;-64
2022/06/29 00:23:59;;;;;;;5.68;5.18;;;;;;;;;;5028486;28;20034;-62
2022/06/29 00:26:25;;;;;;;6.57;5.97;;;;;;;;;;5026967;28;20042;-65
2022/06/29 00:28:51;;;;;;;5.57;5.18;;;;;;;;;;5027242;28;20032;-63
2022/06/29 00:31:16;;;;;;;5.82;5.13;;;;;;;;;;5028081;28;20396;-64
2022/06/29 00:33:42;;;;;;;5.75;5.35;;;;;;;;;;5028161;28;20105;-64
2022/06/29 00:36:07;;;;;;;5.68;5.28;;;;;;;;;;5028164;28;20063;-67
2022/06/29 00:38:33;;;;;;;5.65;5.18;;;;;;;;;;5028032;28;20086;-65
2022/06/29 00:40:58;;;;;;;5.88;5.40;;;;;;;;;;5028045;28;20446;-64
2022/06/29 00:43:24;;;;;;;5.90;5.30;;;;;;;;;;5032400;28;20036;-65
2022/06/29 00:45:50;;;;;;;6.05;5.43;;;;;;;;;;5033919;28;20091;-65
2022/06/29 00:48:16;;;;;;;6.03;5.53;;;;;;;;;;5027698;28;20119;-64
2022/06/29 00:50:42;;;;;;;6.13;5.72;;;;;;;;;;5027674;28;20159;-64
2022/06/29 00:53:09;;;;;;;5.38;5.00;;;;;;;;;;5027324;28;20035;-63
2022/06/29 00:55:36;;;;;;;5.97;5.47;;;;;;;;;;5027296;28;20090;-65
2022/06/29 00:58:05;;;;;;;6.82;6.28;;;;;;;;;;5027678;28;20052;-64
2022/06/29 01:00:32;;;;;;;8.40;7.40;;;;;;;;;;5027634;28;20080;-65
2022/06/29 01:02:59;;;;;;;35.47;16.67;;;;;;;;;;5027333;28;20163;-64
2022/06/29 01:05:27;;;;;;;8.98;7.28;;;;;;;;;;5027199;28;20082;-65
2022/06/29 01:07:53;;;;;;;11.80;7.90;;;;;;;;;;5027323;28;20064;-64
2022/06/29 01:10:19;;;;;;;11.25;7.47;;;;;;;;;;5027451;28;20068;-64
2022/06/29 01:12:47;;;;;;;9.05;6.88;;;;;;;;;;5042727;28;20387;-64
2022/06/29 01:15:13;;;;;;;9.27;7.15;;;;;;;;;;5027436;28;20033;-65
2022/06/29 01:17:38;;;;;;;8.00;7.18;;;;;;;;;;5027450;28;20032;-63
2022/06/29 01:20:04;;;;;;;9.43;6.80;;;;;;;;;;5027006;28;20076;-64
2022/06/29 01:22:29;;;;;;;8.52;6.93;;;;;;;;;;5027023;28;20122;-65
2022/06/29 01:24:55;;;;;;;9.00;6.72;;;;;;;;;;5042392;28;20106;-65
2022/06/29 01:27:23;;;;;;;8.63;7.43;;;;;;;;;;5027048;28;20044;-65
2022/06/29 01:29:48;;;;;;;9.50;7.97;;;;;;;;;;5026783;28;20499;-65
2022/06/29 01:32:14;;;;;;;9.75;7.90;;;;;;;;;;5027155;28;20030;-63
2022/06/29 01:34:40;;;;;;;13.70;10.00;;;;;;;;;;5026415;28;20434;-65
2022/06/29 01:37:06;;;;;;;10.43;9.07;;;;;;;;;;5026548;28;20104;-65
2022/06/29 01:39:32;;;;;;;12.93;11.63;;;;;;;;;;5024808;28;20124;-66
2022/06/29 01:41:57;;;;;;;11.77;10.77;;;;;;;;;;5026105;28;20059;-65
2022/06/29 01:44:23;;;;;;;9.65;8.73;;;;;;;;;;5026350;28;20037;-67
2022/06/29 01:46:48;;;;;;;9.15;8.32;;;;;;;;;;5026529;28;20422;-65
2022/06/29 01:49:14;;;;;;;9.30;8.38;;;;;;;;;;5025641;28;20080;-65
2022/06/29 01:51:40;;;;;;;9.65;8.80;;;;;;;;;;5026489;28;20053;-64
2022/06/29 01:54:06;;;;;;;8.95;7.95;;;;;;;;;;5026693;28;20087;-65
2022/06/29 01:56:31;;;;;;;9.60;8.73;;;;;;;;;;5026652;28;20033;-65
2022/06/29 01:58:57;;;;;;;11.23;10.10;;;;;;;;;;5025593;28;20034;-65
2022/06/29 02:01:23;;;;;;;12.98;11.77;;;;;;;;;;5026673;28;20056;-66
2022/06/29 02:03:48;;;;;;;12.65;11.55;;;;;;;;;;5028034;28;20124;-65
2022/06/29 02:06:14;;;;;;;14.38;12.88;;;;;;;;;;5032095;28;20021;-66
2022/06/29 02:08:39;;;;;;;14.77;13.23;;;;;;;;;;5032348;28;20484;-64
2022/06/29 02:11:05;;;;;;;14.80;13.50;;;;;;;;;;5032742;28;20079;-63
2022/06/29 02:13:30;;;;;;;14.35;12.95;;;;;;;;;;5027847;28;20128;-64
2022/06/29 02:15:56;;;;;;;16.02;14.43;;;;;;;;;;5025381;28;20093;-65
2022/06/29 02:18:22;;;;;;;17.30;15.02;;;;;;;;;;5025046;28;20136;-65
2022/06/29 02:20:47;;;;;;;15.85;14.45;;;;;;;;;;5026603;28;20104;-68
2022/06/29 02:23:13;;;;;;;12.80;10.73;;;;;;;;;;5026500;28;20519;-73
2022/06/29 02:25:38;;;;;;;13.93;12.02;;;;;;;;;;5025849;28;20510;-72
2022/06/29 02:28:05;;;;;;;12.63;11.32;;;;;;;;;;5026467;28;20133;-71
2022/06/29 02:35:59;;;;;;;11.48;10.43;;;;;;;;;;5026207;28;20088;-72
2022/06/29 02:38:24;;;;;;;11.70;10.60;;;;;;;;;;5026605;28;20041;-64
2022/06/29 02:40:50;;;;;;;12.38;11.27;;;;;;;;;;5026414;28;20033;-65
2022/06/29 02:43:16;;;;;;;15.52;14.00;;;;;;;;;;5026895;28;20029;-63
2022/06/29 02:45:42;;;;;;;11.85;10.75;;;;;;;;;;5026351;28;20045;-71
2022/06/29 02:48:07;;;;;;;17.58;13.70;;;;;;;;;;5026301;28;20021;-72
2022/06/29 02:50:33;;;;;;;16.20;13.85;;;;;;;;;;5026410;28;20037;-71
2022/06/29 02:52:58;;;;;;;14.55;12.98;;;;;;;;;;5028032;28;20104;-71
2022/06/29 02:55:24;;;;;;;13.40;11.88;;;;;;;;;;5029901;28;20030;-64
2022/06/29 02:57:49;;;;;;;15.77;14.10;;;;;;;;;;5029904;28;20440;-63
2022/06/29 03:00:15;;;;;;;13.73;12.38;;;;;;;;;;5030277;28;20042;-71
2022/06/29 03:02:40;;;;;;;14.38;13.02;;;;;;;;;;5030120;28;20030;-65
2022/06/29 03:05:06;;;;;;;17.95;14.38;;;;;;;;;;5030426;28;20396;-72
2022/06/29 03:07:32;;;;;;;14.90;13.40;;;;;;;;;;5030383;28;20108;-65
2022/06/29 03:09:57;;;;;;;15.23;13.57;;;;;;;;;;5030247;28;20036;-71
2022/06/29 03:12:23;;;;;;;14.80;12.85;;;;;;;;;;5030195;28;20053;-66
2022/06/29 03:14:48;;;;;;;15.30;13.30;;;;;;;;;;5030070;28;20033;-71
2022/06/29 03:17:14;;;;;;;11.98;10.80;;;;;;;;;;5030006;28;20521;-65
2022/06/29 03:19:39;;;;;;;14.77;13.38;;;;;;;;;;5029761;28;20593;-65
2022/06/29 03:22:05;;;;;;;14.82;13.30;;;;;;;;;;5029823;28;20119;-73
2022/06/29 03:24:30;;;;;;;17.08;14.52;;;;;;;;;;5034777;28;20052;-77
2022/06/29 03:26:56;;;;;;;14.57;13.07;;;;;;;;;;5035376;28;20029;-71
2022/06/29 03:29:21;;;;;;;15.60;14.07;;;;;;;;;;5035105;28;20040;-72
2022/06/29 03:31:47;;;;;;;15.98;14.35;;;;;;;;;;5033634;28;20052;-72
2022/06/29 03:34:12;;;;;;;15.63;13.98;;;;;;;;;;5031806;28;20104;-72
2022/06/29 03:36:38;;;;;;;15.45;13.77;;;;;;;;;;5032244;28;20022;-72
2022/06/29 03:39:03;;;;;;;15.25;13.65;;;;;;;;;;5033817;28;20460;-72
2022/06/29 03:41:29;;;;;;;16.42;13.85;;;;;;;;;;5032713;28;20022;-72
2022/06/29 03:43:54;;;;;;;14.68;13.27;;;;;;;;;;5033501;28;20044;-72
2022/06/29 03:46:19;;;;;;;14.20;12.70;;;;;;;;;;5035594;28;20048;-71
2022/06/29 03:48:45;;;;;;;13.52;12.27;;;;;;;;;;5035202;28;20033;-72
2022/06/29 03:51:10;;;;;;;14.43;12.93;;;;;;;;;;5033615;28;20026;-71
2022/06/29 03:53:36;;;;;;;14.95;13.50;;;;;;;;;;5032278;28;20034;-71
2022/06/29 03:56:02;;;;;;;12.98;11.70;;;;;;;;;;5048442;28;20033;-71
2022/06/29 03:58:27;;;;;;;13.23;11.82;;;;;;;;;;5034808;28;20412;-71
2022/06/29 04:00:53;;;;;;;15.93;12.93;;;;;;;;;;5035230;28;20049;-71
2022/06/29 04:03:18;;;;;;;14.90;13.38;;;;;;;;;;5034801;28;20479;-71
2022/06/29 04:05:44;;;;;;;14.05;12.75;;;;;;;;;;5035171;28;20021;-71
2022/06/29 04:08:10;;;;;;;13.88;11.70;;;;;;;;;;5035246;28;20030;-71
2022/06/29 04:10:36;;;;;;;14.43;13.10;;;;;;;;;;5035010;28;20176;-71
2022/06/29 04:13:01;;;;;;;15.10;12.70;;;;;;;;;;5034262;28;20116;-71
2022/06/29 04:15:27;;;;;;;13.27;11.98;;;;;;;;;;5033765;28;20020;-72
2022/06/29 04:17:52;;;;;;;13.32;11.55;;;;;;;;;;5033776;28;20362;-71
2022/06/29 04:23:02;;;;;;;14.85;13.25;;;;;;;;;;5033409;28;20493;-71
2022/06/29 04:25:28;;;;;;;14.93;13.32;;;;;;;;;;5033617;28;20052;-71
2022/06/29 04:27:53;;;;;;;13.95;12.55;;;;;;;;;;5033569;28;20452;-71
2022/06/29 04:30:19;;;;;;;14.23;12.82;;;;;;;;;;5033877;28;20041;-71
2022/06/29 04:32:45;;;;;;;14.68;13.27;;;;;;;;;;5034746;28;20104;-71
2022/06/29 04:35:11;;;;;;;14.93;13.43;;;;;;;;;;5034672;28;20033;-76
2022/06/29 04:37:36;;;;;;;17.15;13.98;;;;;;;;;;5034624;28;20021;-74
2022/06/29 04:40:03;;;;;;;15.95;13.52;;;;;;;;;;5034562;28;20418;-75
2022/06/29 04:42:28;;;;;;;18.70;14.38;;;;;;;;;;5034617;28;20022;-74
2022/06/29 04:44:54;;;;;;;15.75;14.13;;;;;;;;;;5034463;28;20049;-74
2022/06/29 04:47:22;;;;;;;16.35;14.82;;;;;;;;;;5034511;28;20429;-74
2022/06/29 04:49:48;;;;;;;16.83;15.00;;;;;;;;;;5033479;28;20383;-74
2022/06/29 04:52:13;;;;;;;15.57;13.95;;;;;;;;;;5033593;28;20023;-75
2022/06/29 04:54:39;;;;;;;16.40;14.75;;;;;;;;;;5033739;28;20022;-74
2022/06/29 04:57:06;;;;;;;16.88;14.50;;;;;;;;;;5033431;28;20456;-73
2022/06/29 04:59:32;;;;;;;16.35;14.63;;;;;;;;;;5048756;28;20029;-74
2022/06/29 05:01:57;;;;;;;16.30;14.57;;;;;;;;;;5032121;28;20032;-74
2022/06/29 05:04:24;;;;;;;16.20;14.52;;;;;;;;;;5033286;28;20472;-75
2022/06/29 05:06:50;;;;;;;16.15;14.48;;;;;;;;;;5033297;28;20361;-74
2022/06/29 05:09:15;;;;;;;15.68;14.13;;;;;;;;;;5033114;28;20159;-75
2022/06/29 05:11:41;;;;;;;13.98;12.68;;;;;;;;;;5033159;28;20483;-74
2022/06/29 05:14:07;;;;;;;16.63;13.68;;;;;;;;;;5048472;28;20041;-73
2022/06/29 05:16:32;;;;;;;18.92;14.90;;;;;;;;;;5032510;28;20060;-74
2022/06/29 05:18:57;;;;;;;15.23;13.18;;;;;;;;;;5033063;28;20065;-74
2022/06/29 05:21:26;;;;;;;16.27;13.77;;;;;;;;;;5032874;28;20041;-74
2022/06/29 05:23:51;;;;;;;13.95;12.57;;;;;;;;;;5033044;28;20483;-74
2022/06/29 05:26:16;;;;;;;15.30;13.02;;;;;;;;;;5033055;28;20105;-73
2022/06/29 05:28:42;;;;;;;13.80;12.45;;;;;;;;;;5033354;28;20033;-75
2022/06/29 05:31:07;;;;;;;15.90;14.15;;;;;;;;;;5032217;28;20026;-74
2022/06/29 05:33:38;;;;;;;14.90;13.32;;;;;;;;;;5032962;28;20079;-74
2022/06/29 05:36:08;;;;;;;15.48;12.18;;;;;;;;;;5033000;28;20029;-75
2022/06/29 05:38:34;;;;;;;15.13;11.57;;;;;;;;;;5032948;28;20064;-74
2022/06/29 05:41:02;;;;;;;12.70;11.40;;;;;;;;;;5032735;28;20041;-74
2022/06/29 05:43:28;;;;;;;14.90;13.38;;;;;;;;;;5032738;28;20021;-74
2022/06/29 05:45:53;;;;;;;16.13;13.57;;;;;;;;;;5032977;28;20029;-74
2022/06/29 05:48:19;;;;;;;16.88;13.73;;;;;;;;;;5033231;28;20093;-74
2022/06/29 05:50:44;;;;;;;15.93;14.23;;;;;;;;;;5032577;28;20498;-74
2022/06/29 05:53:10;;;;;;;14.15;12.77;;;;;;;;;;5032625;28;20017;-74
2022/06/29 05:55:35;;;;;;;13.57;12.18;;;;;;;;;;5032593;28;20026;-74
2022/06/29 05:58:00;;;;;;;12.68;10.20;;;;;;;;;;5032633;28;20021;-74
2022/06/29 06:00:26;;;;;;;14.38;11.27;;;;;;;;;;5032478;28;20045;-75
2022/06/29 06:02:52;;;;;;;13.48;11.73;;;;;;;;;;5032517;28;20025;-74
2022/06/29 06:05:17;;;;;;;13.07;11.70;;;;;;;;;;5032453;28;20468;-75
2022/06/29 06:07:42;;;;;;;15.30;13.45;;;;;;;;;;5032501;28;20029;-74
2022/06/29 06:10:08;;;;;;;15.93;14.23;;;;;;;;;;5032367;28;20048;-76
2022/06/29 06:12:33;;;;;;;13.90;12.45;;;;;;;;;;5032412;28;20033;-74
2022/06/29 06:15:00;;;;;;;12.63;11.25;;;;;;;;;;5032430;28;20033;-74
2022/06/29 06:17:28;;;;;;;13.50;12.15;;;;;;;;;;5032382;28;20104;-73
2022/06/29 06:19:54;;;;;;;15.05;13.50;;;;;;;;;;5032295;28;20033;-74
2022/06/29 06:22:20;;;;;;;16.08;13.43;;;;;;;;;;5032238;28;20069;-73
2022/06/29 06:24:46;;;;;;;15.77;14.18;;;;;;;;;;5033006;28;20483;-73
2022/06/29 06:27:11;;;;;;;14.65;13.00;;;;;;;;;;5035592;28;20079;-75
2022/06/29 06:29:36;;;;;;;15.50;13.70;;;;;;;;;;5037242;28;20033;-75
2022/06/29 06:32:04;;;;;;;14.32;11.73;;;;;;;;;;5037467;28;20456;-75
2022/06/29 06:34:29;;;;;;;15.10;12.73;;;;;;;;;;5037336;28;20038;-75
2022/06/29 06:36:54;;;;;;;13.57;12.18;;;;;;;;;;5037720;28;20032;-75
2022/06/29 06:39:20;;;;;;;16.38;13.40;;;;;;;;;;5037419;28;20044;-75
2022/06/29 06:41:45;;;;;;;15.05;13.40;;;;;;;;;;5037396;28;20022;-74
2022/06/29 06:44:10;;;;;;;16.25;14.05;;;;;;;;;;5037068;28;20502;-74
2022/06/29 06:46:36;;;;;;;15.02;11.63;;;;;;;;;;5036921;28;20380;-75
2022/06/29 06:49:01;;;;;;;15.65;14.05;;;;;;;;;;5037506;28;20084;-75
2022/06/29 06:51:27;;;;;;;15.18;13.60;;;;;;;;;;5036093;28;20440;-75
2022/06/29 06:53:52;;;;;;;13.90;12.52;;;;;;;;;;5036033;28;20436;-75
2022/06/29 06:56:18;;;;;;;14.32;12.63;;;;;;;;;;5036651;28;20095;-74
2022/06/29 06:58:43;;;;;;;13.98;11.32;;;;;;;;;;5036626;28;20079;-75
2022/06/29 07:01:09;;;;;;;15.48;13.88;;;;;;;;;;5036530;28;20101;-74
2022/06/29 07:03:38;;;;;;;15.38;13.60;;;;;;;;;;5036487;28;20060;-74
2022/06/29 07:06:04;;;;;;;13.52;12.23;;;;;;;;;;5036608;28;20087;-74
2022/06/29 07:08:31;;;;;;;14.32;12.80;;;;;;;;;;5036597;28;20033;-74
2022/06/29 07:10:56;;;;;;;11.70;10.65;;;;;;;;;;5036779;28;20376;-74
2022/06/29 07:13:22;;;;;;;12.27;10.38;;;;;;;;;;5036798;28;20029;-74
2022/06/29 07:15:47;;;;;;;11.43;10.25;;;;;;;;;;5035582;28;20049;-66
2022/06/29 07:18:13;;;;;;;13.93;12.10;;;;;;;;;;5036429;28;20096;-67
2022/06/29 07:20:38;;;;;;;10.43;9.13;;;;;;;;;;5036386;28;20017;-67
2022/06/29 07:23:04;;;;;;;11.95;10.57;;;;;;;;;;5036198;28;20084;-65
2022/06/29 07:25:29;;;;;;;11.10;10.10;;;;;;;;;;5035014;28;20030;-67
2022/06/29 07:27:54;;;;;;;11.68;10.52;;;;;;;;;;5036260;28;20403;-67
2022/06/29 07:30:20;;;;;;;11.13;10.02;;;;;;;;;;5036667;28;20022;-67
2022/06/29 07:32:45;;;;;;;12.40;11.20;;;;;;;;;;5036193;28;20503;-65
2022/06/29 07:35:11;;;;;;;14.05;11.52;;;;;;;;;;5036687;28;20016;-66
2022/06/29 07:37:36;;;;;;;11.93;9.57;;;;;;;;;;5035818;28;20468;-66
2022/06/29 07:40:02;;;;;;;13.55;12.30;;;;;;;;;;5034435;28;20419;-66
2022/06/29 07:42:28;;;;;;;12.18;11.07;;;;;;;;;;5034672;28;20044;-66
2022/06/29 07:44:53;;;;;;;11.82;10.68;;;;;;;;;;5034674;28;20032;-66
2022/06/29 07:47:18;;;;;;;12.77;11.48;;;;;;;;;;5036122;28;20033;-65
2022/06/29 07:49:44;;;;;;;13.40;12.00;;;;;;;;;;5036325;28;20025;-66
2022/06/29 07:52:09;;;;;;;9.55;8.70;;;;;;;;;;5051709;28;20053;-67
2022/06/29 07:54:34;;;;;;;9.75;8.73;;;;;;;;;;5035237;28;20372;-67
2022/06/29 07:57:00;;;;;;;11.10;10.00;;;;;;;;;;5035664;28;20468;-66
2022/06/29 07:59:25;;;;;;;12.07;10.93;;;;;;;;;;5035948;28;20155;-66
2022/06/29 08:01:51;;;;;;;10.50;9.52;;;;;;;;;;5035620;28;20510;-64
2022/06/29 08:04:16;;;;;;;11.18;10.05;;;;;;;;;;5035425;28;20032;-66
2022/06/29 08:06:42;;;;;;;10.52;9.23;;;;;;;;;;5034428;28;20034;-65
2022/06/29 08:09:07;;;;;;;13.82;11.65;;;;;;;;;;5034369;28;20108;-66
2022/06/29 08:11:32;;;;;;;11.02;9.93;;;;;;;;;;5034525;28;20025;-67
2022/06/29 08:13:58;;;;;;;12.15;10.73;;;;;;;;;;5034388;28;20017;-67
2022/06/29 08:16:23;;;;;;;11.25;9.68;;;;;;;;;;5034253;28;20033;-67
2022/06/29 08:18:49;;;;;;;11.80;10.60;;;;;;;;;;5033093;28;20072;-67
2022/06/29 08:21:14;;;;;;;10.30;9.20;;;;;;;;;;5034051;28;20476;-67
2022/06/29 08:23:39;;;;;;;10.68;9.57;;;;;;;;;;5049582;28;20036;-66
2022/06/29 08:26:05;;;;;;;10.55;9.65;;;;;;;;;;5034126;28;20415;-67
2022/06/29 08:28:30;;;;;;;11.15;10.07;;;;;;;;;;5049758;28;20353;-65
2022/06/29 08:30:56;;;;;;;12.30;10.20;;;;;;;;;;5033921;28;20120;-67
2022/06/29 08:33:21;;;;;;;11.23;10.23;;;;;;;;;;5034026;28;20036;-67
2022/06/29 08:35:48;;;;;;;11.65;10.45;;;;;;;;;;5033948;28;20030;-66
2022/06/29 08:38:13;;;;;;;10.15;9.25;;;;;;;;;;5033911;28;20028;-67
2022/06/29 08:40:47;;;;;;;10.65;9.85;;;;;;;;;;5032708;28;20395;-68
2022/06/29 08:43:14;;;;;;;10.80;9.90;;;;;;;;;;5033700;28;20038;-68
2022/06/29 08:45:43;;;;;;;11.55;10.50;;;;;;;;;;5033685;28;20025;-68
2022/06/29 08:48:08;;;;;;;12.38;11.13;;;;;;;;;;5032413;28;20033;-68
2022/06/29 08:50:34;;;;;;;16.58;10.82;;;;;;;;;;5048095;28;20091;-67
2022/06/29 08:53:02;;;;;;;12.30;11.00;;;;;;;;;;5033765;28;20021;-68
2022/06/29 08:55:28;;;;;;;10.70;9.65;;;;;;;;;;5033562;28;20140;-68
2022/06/29 08:57:53;;;;;;;13.30;10.43;;;;;;;;;;5048757;28;20191;-68
2022/06/29 09:00:19;;;;;;;13.90;11.25;;;;;;;;;;5033347;28;20503;-67
2022/06/29 09:02:45;;;;;;;11.88;10.82;;;;;;;;;;5033413;28;20075;-68
2022/06/29 09:05:11;;;;;;;11.13;10.07;;;;;;;;;;5033331;28;20024;-78
2022/06/29 09:07:36;;;;;;;11.70;10.70;;;;;;;;;;5033743;28;20048;-64
2022/06/29 09:10:01;;;;;;;11.23;10.20;;;;;;;;;;5033522;28;20029;-69
2022/06/29 09:12:28;;;;;;;10.02;9.00;;;;;;;;;;5033193;28;20034;-64
2022/06/29 09:14:53;;;;;;;11.63;10.43;;;;;;;;;;5033101;28;20020;-65
2022/06/29 09:17:19;;;;;;;11.18;10.20;;;;;;;;;;5033194;28;20061;-66
2022/06/29 09:19:46;;;;;;;12.10;11.00;;;;;;;;;;5033158;28;20021;-63
2022/06/29 09:22:11;;;;;;;10.77;9.85;;;;;;;;;;5032894;28;20081;-63
2022/06/29 09:24:37;;;;;;;12.82;9.63;;;;;;;;;;5033096;28;20064;-65
2022/06/29 09:27:04;;;;;;;10.07;9.27;;;;;;;;;;5031853;28;20040;-64
2022/06/29 09:29:30;;;;;;;11.27;10.05;;;;;;;;;;5032788;28;20029;-66
2022/06/29 09:32:03;;;;;;;11.10;9.82;;;;;;;;;;5048166;28;20491;-65
2022/06/29 09:34:29;;;;;;;10.68;9.77;;;;;;;;;;5032857;28;20021;-64
2022/06/29 09:36:55;;;;;;;11.88;10.68;;;;;;;;;;5032779;28;20455;-65
2022/06/29 09:39:33;;;;;;;10.68;9.75;;;;;;;;;;5033017;28;20025;-65
2022/06/29 09:41:58;;;;;;;10.77;9.77;;;;;;;;;;5032868;28;20453;-65
2022/06/29 09:44:24;;;;;;;10.30;9.30;;;;;;;;;;5032881;28;20009;-65
2022/06/29 09:46:50;;;;;;;14.25;10.02;;;;;;;;;;5032692;28;20384;-66
2022/06/29 09:49:17;;;;;;;11.55;10.55;;;;;;;;;;5032873;28;20014;-65
2022/06/29 09:51:43;;;;;;;11.52;10.35;;;;;;;;;;5032612;28;20030;-65
2022/06/29 09:54:10;;;;;;;11.52;10.48;;;;;;;;;;5032721;28;20019;-66
2022/06/29 09:56:38;;;;;;;12.20;10.65;;;;;;;;;;5032548;28;20033;-66
2022/06/29 09:59:05;;;;;;;12.85;11.75;;;;;;;;;;5032633;28;20095;-65
2022/06/29 10:04:14;;;;;;;11.90;10.70;;;;;;;;;;5032592;28;20483;-65
2022/06/29 10:06:40;;;;;;;11.80;10.65;;;;;;;;;;5032532;28;20052;-65
2022/06/29 10:09:06;;;;;;;14.60;10.80;;;;;;;;;;5032507;28;20037;-65
2022/06/29 10:14:24;;;;;;;10.85;9.88;;;;;;;;;;5032552;28;20042;-66
2022/06/29 10:16:56;;;;;;;11.18;10.07;;;;;;;;;;5032580;28;20017;-65
2022/06/29 10:19:31;;;;;;;12.20;11.07;;;;;;;;;;5047811;28;20032;-66
2022/06/29 10:21:57;;;;;;;12.18;10.88;;;;;;;;;;5032401;28;20041;-65
2022/06/29 10:24:22;;;;;;;13.52;10.32;;;;;;;;;;5032555;28;20395;-65
2022/06/29 10:26:48;;;;;;;13.02;11.75;;;;;;;;;;5032390;28;20033;-64
2022/06/29 10:29:19;;;;;;;12.82;11.52;;;;;;;;;;5032310;28;20100;-64
2022/06/29 10:34:34;;;;;;;12.15;11.15;;;;;;;;;;5032828;28;20084;-64
2022/06/29 10:37:11;;;;;;;11.73;10.63;;;;;;;;;;5033974;28;20021;-65
2022/06/29 10:39:37;;;;;;;11.00;10.00;;;;;;;;;;5033135;28;20034;-64
2022/06/29 10:45:01;;;;;;;10.80;9.88;;;;;;;;;;5033093;28;20144;-65
2022/06/29 10:47:27;;;;;;;11.60;10.38;;;;;;;;;;5033472;28;20506;-65
2022/06/29 10:50:11;;;;;;;11.30;10.20;;;;;;;;;;5048796;28;20064;-65
2022/06/29 10:52:37;;;;;;;10.07;9.25;;;;;;;;;;5031880;28;20125;-65
2022/06/29 10:57:37;;;;;;;11.27;10.35;;;;;;;;;;4973229;28;20500;-73
2022/06/29 11:00:06;;;;;;;11.57;9.93;;;;;;;;;;4974596;28;20065;-73
2022/06/29 11:02:31;;;;;;;11.18;10.07;;;;;;;;;;4974556;28;20381;-72
2022/06/29 11:04:57;;;;;;;11.35;10.13;;;;;;;;;;4974294;28;20022;-73
2022/06/29 11:12:55;;;;;;;13.02;10.82;;;;;;;;;;4974753;28;20110;-73
2022/06/29 11:15:45;;;;;;;11.30;10.18;;;;;;;;;;4976402;28;20397;-73
2022/06/29 11:18:12;;;;;;;11.90;10.80;;;;;;;;;;4977222;28;20033;-73
2022/06/29 11:20:38;;;;;;;11.85;10.15;;;;;;;;;;4977770;28;20023;-73
2022/06/29 11:23:07;;;;;;;11.70;10.60;;;;;;;;;;4977529;28;20039;-72
2022/06/29 11:25:37;;;;;;;12.27;10.48;;;;;;;;;;4977854;28;20026;-73
2022/06/29 11:28:04;;;;;;;12.32;11.10;;;;;;;;;;4976211;28;20031;-73
2022/06/29 11:30:40;;;;;;;11.82;9.82;;;;;;;;;;4976669;28;20471;-73
2022/06/29 11:33:10;;;;;;;10.50;9.18;;;;;;;;;;4976819;28;20424;-73
2022/06/29 11:35:36;;;;;;;11.00;10.00;;;;;;;;;;4976701;28;20015;-73
2022/06/29 11:38:02;;;;;;;11.75;10.52;;;;;;;;;;4976231;28;20078;-73
2022/06/29 11:40:40;;;;;;;12.13;10.38;;;;;;;;;;4976198;28;20022;-72
2022/06/29 11:43:09;;;;;;;11.50;10.40;;;;;;;;;;4976166;28;20033;-73
2022/06/29 11:45:58;;;;;;;10.60;9.73;;;;;;;;;;4976120;28;20473;-73
2022/06/29 11:48:27;;;;;;;10.25;9.35;;;;;;;;;;4976112;28;20023;-73
2022/06/29 11:50:57;;;;;;;10.77;9.77;;;;;;;;;;4976010;28;20047;-73
2022/06/29 11:53:42;;;;;;;11.10;10.05;;;;;;;;;;4976202;28;20050;-73
2022/06/29 11:56:09;;;;;;;10.20;9.20;;;;;;;;;;4975764;28;20051;-73
2022/06/29 11:58:35;;;;;;;10.35;9.35;;;;;;;;;;4975778;28;20028;-73
2022/06/29 12:01:00;;;;;;;11.20;10.05;;;;;;;;;;4975752;28;20081;-73
2022/06/29 12:03:26;;;;;;;9.90;9.00;;;;;;;;;;4975686;28;20062;-73
2022/06/29 12:05:56;;;;;;;11.43;9.70;;;;;;;;;;4975758;28;20240;-73
2022/06/29 12:08:21;;;;;;;10.93;9.80;;;;;;;;;;4975707;28;20429;-72
2022/06/29 12:10:47;;;;;;;10.18;9.35;;;;;;;;;;4975564;28;20065;-72
2022/06/29 12:13:13;;;;;;;9.95;9.15;;;;;;;;;;4990512;28;20378;-72
2022/06/29 12:15:38;;;;;;;10.27;9.20;;;;;;;;;;4974238;28;20033;-73
2022/06/29 12:18:04;;;;;;;10.25;9.35;;;;;;;;;;4974270;28;20038;-72
2022/06/29 12:20:29;;;;;;;10.02;9.07;;;;;;;;;;4975393;28;20026;-72
2022/06/29 12:22:54;;;;;;;10.55;9.65;;;;;;;;;;4974180;28;20034;-72
2022/06/29 12:25:22;;;;;;;9.77;8.82;;;;;;;;;;4975183;28;20457;-73
2022/06/29 12:27:48;;;;;;;10.10;9.10;;;;;;;;;;4975329;28;20030;-64
2022/06/29 12:30:14;;;;;;;10.43;9.07;;;;;;;;;;4973912;28;20082;-64
2022/06/29 12:32:39;;;;;;;12.40;10.10;;;;;;;;;;4975257;28;20035;-65
2022/06/29 12:35:05;;;;;;;11.20;10.10;;;;;;;;;;4975201;28;20017;-65
2022/06/29 12:37:31;;;;;;;10.32;9.43;;;;;;;;;;4975133;28;20031;-64
2022/06/29 12:39:56;;;;;;;10.88;9.88;;;;;;;;;;4975335;28;20086;-65
2022/06/29 12:42:21;;;;;;;11.20;9.43;;;;;;;;;;4975071;28;20034;-65
2022/06/29 12:44:47;;;;;;;9.88;9.18;;;;;;;;;;4976711;28;20022;-65
2022/06/29 12:47:19;;;;;;;11.35;10.15;;;;;;;;;;4975685;28;20039;-65
2022/06/29 12:49:44;;;;;;;10.38;9.48;;;;;;;;;;4975137;28;20042;-65
2022/06/29 12:52:10;;;;;;;9.65;8.85;;;;;;;;;;4974874;28;20069;-65
2022/06/29 12:54:36;;;;;;;11.23;10.10;;;;;;;;;;4974861;28;20088;-65
2022/06/29 12:57:02;;;;;;;10.90;9.75;;;;;;;;;;4974526;28;20051;-65
2022/06/29 12:59:28;;;;;;;10.68;9.68;;;;;;;;;;4974662;28;20610;-64
2022/06/29 13:01:53;;;;;;;11.20;10.15;;;;;;;;;;4975270;28;20095;-64
2022/06/29 13:04:19;;;;;;;11.65;10.55;;;;;;;;;;4974687;28;20030;-65
2022/06/29 13:06:45;;;;;;;11.88;9.75;;;;;;;;;;4974596;28;20023;-64
2022/06/29 13:09:10;;;;;;;10.75;9.68;;;;;;;;;;4974561;28;20393;-65
2022/06/29 13:11:36;;;;;;;11.25;10.35;;;;;;;;;;4974467;28;20031;-65
2022/06/29 13:14:01;;;;;;;10.82;9.82;;;;;;;;;;4973522;28;20106;-65
2022/06/29 13:16:27;;;;;;;10.48;9.38;;;;;;;;;;4974433;28;20359;-65
2022/06/29 13:18:53;;;;;;;10.15;9.30;;;;;;;;;;4974378;28;20477;-66
2022/06/29 13:21:19;;;;;;;11.95;9.80;;;;;;;;;;4974425;28;20089;-65
2022/06/29 13:23:44;;;;;;;11.18;10.05;;;;;;;;;;4974567;28;20034;-65
2022/06/29 13:26:09;;;;;;;10.48;9.48;;;;;;;;;;4973843;28;20118;-65
2022/06/29 13:28:38;;;;;;;9.85;8.98;;;;;;;;;;4974845;28;20037;-65
2022/06/29 13:31:04;;;;;;;11.18;10.15;;;;;;;;;;4974327;28;20049;-64
2022/06/29 13:33:29;;;;;;;11.80;9.93;;;;;;;;;;4974600;28;20458;-65
2022/06/29 13:35:54;;;;;;;15.30;10.55;;;;;;;;;;4973993;28;20118;-65
2022/06/29 13:38:20;;;;;;;10.23;9.32;;;;;;;;;;4973705;28;20031;-65
2022/06/29 13:40:45;;;;;;;12.45;9.30;;;;;;;;;;4974826;28;20025;-65
2022/06/29 13:43:11;;;;;;;10.20;9.30;;;;;;;;;;4974889;28;20111;-64
2022/06/29 13:45:36;;;;;;;11.75;9.57;;;;;;;;;;4974738;28;20073;-65
2022/06/29 13:48:02;;;;;;;10.38;9.35;;;;;;;;;;4974486;28;20030;-65
2022/06/29 13:50:27;;;;;;;10.85;9.77;;;;;;;;;;4974589;28;20019;-65
2022/06/29 13:52:53;;;;;;;10.75;9.65;;;;;;;;;;4973510;28;20038;-65
2022/06/29 13:55:18;;;;;;;10.77;9.73;;;;;;;;;;4974075;28;20027;-65
2022/06/29 13:57:44;;;;;;;10.88;9.88;;;;;;;;;;4973360;28;20034;-65
2022/06/29 14:00:11;;;;;;;10.30;9.30;;;;;;;;;;4974595;28;20066;-64
2022/06/29 14:02:37;;;;;;;11.32;10.23;;;;;;;;;;4974534;28;20059;-64
2022/06/29 14:05:02;;;;;;;10.88;9.88;;;;;;;;;;4974680;28;20057;-64
2022/06/29 14:07:28;;;;;;;11.02;9.93;;;;;;;;;;4974450;28;20038;-65
2022/06/29 14:09:54;;;;;;;11.95;9.70;;;;;;;;;;4974515;28;20023;-65
2022/06/29 14:12:20;;;;;;;13.32;10.70;;;;;;;;;;4974673;28;20351;-65
2022/06/29 14:14:45;;;;;;;12.13;10.65;;;;;;;;;;4974534;28;20019;-65
2022/06/29 14:17:11;;;;;;;11.85;10.55;;;;;;;;;;4973228;28;20069;-65
2022/06/29 14:19:36;;;;;;;13.25;10.48;;;;;;;;;;4974408;28;20122;-64
2022/06/29 14:22:02;;;;;;;11.43;10.32;;;;;;;;;;4974464;28;20027;-64
2022/06/29 14:24:28;;;;;;;12.43;10.57;;;;;;;;;;4974394;28;20521;-66
2022/06/29 14:27:00;;;;;;;12.73;11.45;;;;;;;;;;4974387;28;20093;-65
2022/06/29 14:29:25;;;;;;;12.80;11.63;;;;;;;;;;4974206;28;20027;-65
2022/06/29 14:31:51;;;;;;;12.13;10.95;;;;;;;;;;4973751;28;20066;-63
2022/06/29 14:34:16;;;;;;;11.18;10.25;;;;;;;;;;4974168;28;20023;-73
2022/06/29 14:36:42;;;;;;;12.07;10.88;;;;;;;;;;4973984;28;20022;-73
2022/06/29 14:39:07;;;;;;;12.52;11.38;;;;;;;;;;4974367;28;20027;-73
2022/06/29 14:41:33;;;;;;;12.32;11.10;;;;;;;;;;4974232;28;20029;-73
2022/06/29 14:43:58;;;;;;;11.80;10.68;;;;;;;;;;4974431;28;20043;-73
2022/06/29 14:46:24;;;;;;;13.32;11.23;;;;;;;;;;4973648;28;20042;-73